createdAt,value
2024-04-26T00:01:48.693Z,100098.84
2024-04-26T00:04:19.652Z,100097.13
2024-04-26T00:06:53.696Z,100098.09
2024-04-26T00:09:24.628Z,100104.34
2024-04-26T00:11:55.944Z,100097.44
2024-04-26T00:14:27.243Z,100097.53
2024-04-26T00:16:58.808Z,100109.97
2024-04-26T00:19:29.766Z,100100.38
2024-04-26T00:22:03.742Z,100100.47
2024-04-26T00:24:34.707Z,100098.78
2024-04-26T00:27:06.126Z,100103.28
2024-04-26T00:29:36.998Z,100106.00
2024-04-26T00:32:08.546Z,100104.28
2024-04-26T00:34:39.452Z,100104.38
2024-04-26T00:37:13.610Z,100117.63
2024-04-26T00:39:44.802Z,100111.47
2024-04-26T00:42:16.165Z,100112.41
2024-04-26T00:44:47.222Z,100108.06
2024-04-26T00:47:18.947Z,100116.00
2024-04-26T00:49:51.407Z,100109.91
2024-04-26T00:52:25.478Z,100107.31
2024-04-26T00:54:56.636Z,100117.03
2024-04-26T00:57:28.623Z,100116.19
2024-04-26T01:00:00.080Z,100111.84
2024-04-26T01:02:31.924Z,100113.63
2024-04-26T01:05:03.160Z,100116.31
2024-04-26T01:07:37.983Z,100117.16
2024-04-26T01:10:09.660Z,100116.31
2024-04-26T01:12:41.069Z,100117.16
2024-04-26T01:15:12.037Z,100122.44
2024-04-26T01:17:43.810Z,100124.19
2024-04-26T01:20:15.428Z,100125.06
2024-04-26T01:22:51.410Z,100123.31
2024-04-26T01:25:24.827Z,100125.06
2024-04-26T01:27:56.033Z,100128.56
2024-04-26T01:30:27.400Z,100130.31
2024-04-26T01:32:59.961Z,100118.88
2024-04-26T01:35:30.913Z,100119.75
2024-04-26T01:38:02.221Z,100122.41
2024-04-26T01:40:35.663Z,100121.53
2024-04-26T01:43:07.751Z,100121.53
2024-04-26T01:45:38.571Z,100135.63
2024-04-26T01:48:10.334Z,100128.59
2024-04-26T01:50:38.864Z,100133.00
2024-04-26T01:53:10.170Z,100127.75
2024-04-26T01:55:43.859Z,100126.91
2024-04-26T01:58:12.547Z,100128.72
2024-04-26T02:00:43.381Z,100135.78
2024-04-26T02:03:12.459Z,100131.47
2024-04-26T02:05:44.372Z,100142.91
2024-04-26T02:08:13.293Z,100144.72
2024-04-26T02:10:46.818Z,100146.50
2024-04-26T02:13:15.578Z,100147.47
2024-04-26T02:15:46.623Z,100151.03
2024-04-26T02:18:18.080Z,100149.31
2024-04-26T02:20:50.095Z,100148.47
2024-04-26T02:23:21.364Z,100154.69
2024-04-26T02:25:54.888Z,100152.06
2024-04-26T02:28:26.248Z,100151.25
2024-04-26T02:31:24.225Z,100159.19
2024-04-26T02:33:56.005Z,100153.06
2024-04-26T02:36:27.078Z,100143.41
2024-04-26T02:38:58.502Z,100154.88
2024-04-26T02:41:32.119Z,100155.78
2024-04-26T02:44:05.025Z,100153.16
2024-04-26T02:46:36.789Z,100153.16
2024-04-26T02:49:08.266Z,100164.63
2024-04-26T02:51:39.170Z,100170.78
2024-04-26T02:54:10.709Z,100164.63
2024-04-26T02:56:44.379Z,100156.66
2024-04-26T02:59:15.681Z,100171.59
2024-04-26T03:01:49.838Z,100167.22
2024-04-26T03:04:21.373Z,100173.34
2024-04-26T03:06:52.299Z,100170.66
2024-04-26T03:09:23.641Z,100164.47
2024-04-26T03:12:00.857Z,100164.47
2024-04-26T03:14:32.678Z,100164.41
2024-04-26T03:17:03.655Z,100160.84
2024-04-26T03:19:34.969Z,100164.38
2024-04-26T03:22:05.856Z,100166.97
2024-04-26T03:24:37.162Z,100165.22
2024-04-26T03:27:10.766Z,100169.56
2024-04-26T03:29:42.241Z,100173.94
2024-04-26T03:32:13.147Z,100174.78
2024-04-26T03:34:44.653Z,100174.78
2024-04-26T03:37:15.548Z,100185.25
2024-04-26T03:39:46.775Z,100182.63
2024-04-26T03:42:20.438Z,100185.22
2024-04-26T03:44:51.842Z,100181.66
2024-04-26T03:47:23.112Z,100190.47
2024-04-26T03:49:54.523Z,100186.06
2024-04-26T03:52:25.442Z,100194.81
2024-04-26T03:54:56.836Z,100192.13
2024-04-26T03:57:30.392Z,100202.66
2024-04-26T04:00:01.847Z,100198.22
2024-04-26T04:02:36.062Z,100204.34
2024-04-26T04:05:07.813Z,100203.44
2024-04-26T04:07:38.678Z,100200.78
2024-04-26T04:10:10.460Z,100206.91
2024-04-26T04:12:47.331Z,100199.00
2024-04-26T04:15:18.972Z,100209.56
2024-04-26T04:17:50.255Z,100199.84
2024-04-26T04:20:21.724Z,100207.75
2024-04-26T04:22:52.495Z,100211.25
2024-04-26T04:25:27.281Z,100215.59
2024-04-26T04:28:00.741Z,100211.22
2024-04-26T04:30:32.034Z,100214.72
2024-04-26T04:33:04.232Z,100213.81
2024-04-26T04:35:35.853Z,100226.91
2024-04-26T04:38:06.821Z,100219.81
2024-04-26T04:40:38.183Z,100220.53
2024-04-26T04:43:12.672Z,100224.75
2024-04-26T04:45:44.017Z,100224.50
2024-04-26T04:48:14.997Z,100215.56
2024-04-26T04:50:46.359Z,100226.00
2024-04-26T04:53:17.235Z,100222.31
2024-04-26T04:55:48.570Z,100224.75
2024-04-26T04:58:22.072Z,100227.25
2024-04-26T05:00:53.699Z,100221.78
2024-04-26T05:03:24.876Z,100233.84
2024-04-26T05:05:56.307Z,100233.56
2024-04-26T05:08:27.192Z,100236.75
2024-04-26T05:10:58.552Z,100232.09
2024-04-26T05:13:32.288Z,100238.91
2024-04-26T05:16:03.663Z,100243.09
2024-04-26T05:18:34.755Z,100246.28
2024-04-26T05:21:07.017Z,100245.22
2024-04-26T05:23:38.125Z,100250.19
2024-04-26T05:26:09.490Z,100246.44
2024-04-26T05:28:42.963Z,100248.88
2024-04-26T05:31:14.129Z,100243.25
2024-04-26T05:33:45.216Z,100243.84
2024-04-26T05:36:16.785Z,100243.56
2024-04-26T05:38:47.726Z,100253.84
2024-04-26T05:41:19.125Z,100251.78
2024-04-26T05:43:53.033Z,100251.31
2024-04-26T05:46:29.133Z,100258.88
2024-04-26T05:49:25.364Z,100256.78
2024-04-26T05:51:56.755Z,100262.59
2024-04-26T05:54:27.619Z,100265.63
2024-04-26T05:56:58.974Z,100271.53
2024-04-26T05:59:32.503Z,100276.47
2024-04-26T06:02:03.871Z,100274.34
2024-04-26T06:04:35.363Z,100276.56
2024-04-26T06:07:09.327Z,100282.34
2024-04-26T06:09:41.599Z,100282.03
2024-04-26T06:12:12.961Z,100286.94
2024-04-26T06:14:46.609Z,100286.56
2024-04-26T06:17:17.926Z,100285.31
2024-04-26T06:19:48.845Z,100294.72
2024-04-26T06:22:20.287Z,100304.06
2024-04-26T06:24:51.161Z,100291.31
2024-04-26T06:27:22.406Z,100292.59
2024-04-26T06:29:56.031Z,100301.09
2024-04-26T06:32:27.807Z,100298.09
2024-04-26T06:34:58.943Z,100303.88
2024-04-26T06:37:30.373Z,100303.53
2024-04-26T06:40:01.332Z,100305.03
2024-04-26T06:42:32.787Z,100316.19
2024-04-26T06:45:06.433Z,100309.59
2024-04-26T06:47:38.290Z,100309.22
2024-04-26T06:50:10.628Z,100321.22
2024-04-26T06:52:43.820Z,100318.22
2024-04-26T06:55:14.702Z,100327.66
2024-04-26T06:57:46.138Z,100321.19
2024-04-26T07:00:20.130Z,100326.22
2024-04-26T07:02:51.811Z,100327.84
2024-04-26T07:05:23.094Z,100332.91
2024-04-26T07:07:54.531Z,100334.38
2024-04-26T07:10:25.496Z,100336.03
2024-04-26T07:12:56.805Z,100340.28
2024-04-26T07:15:30.372Z,100336.56
2024-04-26T07:18:01.919Z,100339.88
2024-04-26T07:20:32.973Z,100343.13
2024-04-26T07:23:04.816Z,100343.69
2024-04-26T07:25:35.752Z,100341.66
2024-04-26T07:28:07.286Z,100344.13
2024-04-26T07:30:42.128Z,100343.94
2024-04-26T07:33:13.614Z,100346.16
2024-04-26T07:35:44.596Z,100353.97
2024-04-26T07:38:15.976Z,100339.44
2024-04-26T07:40:46.772Z,100339.16
2024-04-26T07:43:18.260Z,100347.59
2024-04-26T07:45:51.673Z,100344.66
2024-04-26T07:48:24.240Z,100340.78
2024-04-26T07:50:55.154Z,100340.66
2024-04-26T07:53:26.666Z,100341.38
2024-04-26T07:55:57.528Z,100352.81
2024-04-26T07:58:29.014Z,100342.75
2024-04-26T08:01:02.542Z,100345.44
2024-04-26T08:03:34.164Z,100352.38
2024-04-26T08:06:05.264Z,100355.72
2024-04-26T08:08:36.615Z,100341.25
2024-04-26T08:11:07.803Z,100347.19
2024-04-26T08:13:39.137Z,100345.19
2024-04-26T08:16:12.917Z,100349.53
2024-04-26T08:18:44.410Z,100351.13
2024-04-26T08:21:16.168Z,100351.56
2024-04-26T08:23:47.685Z,100355.75
2024-04-26T08:26:20.340Z,100350.03
2024-04-26T08:28:51.808Z,100350.75
2024-04-26T08:31:25.277Z,100352.28
2024-04-26T08:33:58.064Z,100361.03
2024-04-26T08:36:29.551Z,100356.97
2024-04-26T08:39:01.240Z,100357.44
2024-04-26T08:41:32.393Z,100362.34
2024-04-26T08:44:04.968Z,100366.41
2024-04-26T08:46:47.993Z,100361.63
2024-04-26T08:49:22.815Z,100356.25
2024-04-26T08:51:57.542Z,100362.41
2024-04-26T08:54:29.056Z,100362.88
2024-04-26T08:57:03.700Z,100366.22
2024-04-26T08:59:44.139Z,100366.84
2024-04-26T09:02:18.691Z,100359.66
2024-04-26T09:04:50.425Z,100375.63
2024-04-26T09:07:21.476Z,100365.63
2024-04-26T09:09:52.961Z,100372.56
2024-04-26T09:12:23.947Z,100373.19
2024-04-26T09:14:55.785Z,100367.53
2024-04-26T09:17:30.996Z,100368.31
2024-04-26T09:20:02.321Z,100370.66
2024-04-26T09:22:35.747Z,100372.88
2024-04-26T09:25:10.684Z,100364.28
2024-04-26T09:27:41.678Z,100374.44
2024-04-26T09:30:14.013Z,100365.06
2024-04-26T09:32:54.969Z,100362.91
2024-04-26T09:35:36.572Z,100364.94
2024-04-26T09:38:10.693Z,100366.19
2024-04-26T09:40:43.985Z,100369.91
2024-04-26T09:48:40.406Z,100360.69
2024-04-26T09:51:18.378Z,100381.31
2024-04-26T09:53:49.747Z,100381.56
2024-04-26T09:56:21.561Z,100382.50
2024-04-26T09:58:52.550Z,100376.97
2024-04-26T10:01:24.646Z,100383.22
2024-04-26T10:03:55.808Z,100369.69
2024-04-26T10:06:29.867Z,100372.03
2024-04-26T10:09:11.636Z,100380.50
2024-04-26T10:11:51.952Z,100382.56
2024-04-26T10:14:33.995Z,100374.94
2024-04-26T10:17:15.962Z,100382.28
2024-04-26T10:19:47.202Z,100379.78
2024-04-26T10:22:27.963Z,100379.75
2024-04-26T10:24:58.856Z,100375.56
2024-04-26T10:27:31.224Z,100388.38
2024-04-26T10:30:02.927Z,100392.16
2024-04-26T10:32:35.522Z,100390.75
2024-04-26T10:35:07.963Z,100383.97
2024-04-26T10:37:44.394Z,100379.56
2024-04-26T10:40:15.592Z,100382.88
2024-04-26T10:42:47.003Z,100373.47
2024-04-26T10:45:18.113Z,100383.84
2024-04-26T10:47:50.470Z,100378.84
2024-04-26T10:50:21.891Z,100368.28
2024-04-26T10:52:55.786Z,100370.31
2024-04-26T10:55:26.784Z,100375.97
2024-04-26T10:58:01.201Z,100378.84
2024-04-26T11:00:42.147Z,100376.44
2024-04-26T11:03:14.590Z,100376.91
2024-04-26T11:05:47.641Z,100382.56
2024-04-26T11:08:30.735Z,100384.84
2024-04-26T11:11:11.176Z,100389.94
2024-04-26T11:13:42.461Z,100386.31
2024-04-26T11:16:13.413Z,100384.38
2024-04-26T11:18:48.274Z,100380.81
2024-04-26T11:21:19.454Z,100385.50
2024-04-26T11:23:53.347Z,100387.44
2024-04-26T11:26:24.366Z,100383.97
2024-04-26T11:28:55.691Z,100393.03
2024-04-26T11:31:26.669Z,100382.44
2024-04-26T11:33:58.187Z,100375.06
2024-04-26T11:36:29.282Z,100386.25
2024-04-26T11:39:03.810Z,100392.88
2024-04-26T11:41:35.097Z,100387.41
2024-04-26T11:44:07.167Z,100387.91
2024-04-26T11:46:38.115Z,100384.22
2024-04-26T11:49:09.716Z,100396.75
2024-04-26T11:51:42.501Z,100392.41
2024-04-26T11:54:16.627Z,100386.25
2024-04-26T11:56:47.628Z,100392.31
2024-04-26T11:59:19.096Z,100387.13
2024-04-26T12:01:50.147Z,100398.75
2024-04-26T12:04:21.577Z,100394.25
2024-04-26T12:06:53.236Z,100396.56
2024-04-26T12:09:27.177Z,100388.47
2024-04-26T12:11:58.705Z,100398.09
2024-04-26T12:14:30.163Z,100405.66
2024-04-26T12:17:01.180Z,100399.03
2024-04-26T12:19:32.555Z,100390.75
2024-04-26T12:22:03.471Z,100406.53
2024-04-26T12:24:37.381Z,100402.88
2024-04-26T12:27:13.617Z,100402.88
2024-04-26T12:29:49.574Z,100401.81
2024-04-26T12:32:20.720Z,100395.38
2024-04-26T12:34:52.129Z,100389.59
2024-04-26T12:37:25.171Z,100408.16
2024-04-26T12:39:59.655Z,100401.47
2024-04-26T12:42:30.741Z,100405.81
2024-04-26T12:45:02.130Z,100408.25
2024-04-26T12:47:33.543Z,100405.34
2024-04-26T12:50:04.936Z,100410.72
2024-04-26T12:52:36.752Z,100415.28
2024-04-26T12:55:10.946Z,100415.16
2024-04-26T12:57:42.098Z,100414.28
2024-04-26T13:00:14.213Z,100420.56
2024-04-26T13:02:45.752Z,100414.28
2024-04-26T13:05:17.332Z,100417.84
2024-04-26T13:07:50.337Z,100414.09
2024-04-26T13:10:24.230Z,100414.00
2024-04-26T13:12:55.276Z,100407.63
2024-04-26T13:15:26.516Z,100415.41
2024-04-26T13:17:57.974Z,100415.22
2024-04-26T13:20:29.477Z,100411.66
2024-04-26T13:23:02.824Z,100423.19
2024-04-26T13:25:38.396Z,100415.22
2024-04-26T13:28:09.590Z,100418.78
2024-04-26T13:30:41.040Z,100414.25
2024-04-26T13:33:12.136Z,100407.31
2024-04-26T13:35:43.637Z,100409.06
2024-04-26T13:38:14.844Z,100410.88
2024-04-26T13:40:49.301Z,100407.25
2024-04-26T13:43:20.877Z,100413.28
2024-04-26T13:45:52.197Z,100410.06
2024-04-26T13:48:23.507Z,100398.03
2024-04-26T13:50:55.298Z,100405.59
2024-04-26T13:53:26.309Z,100400.47
2024-04-26T13:56:00.171Z,100400.94
2024-04-26T13:58:31.870Z,100408.75
2024-04-26T14:01:03.168Z,100403.16
2024-04-26T14:03:34.385Z,100402.13
2024-04-26T14:06:06.180Z,100400.53
2024-04-26T14:08:38.826Z,100402.16
2024-04-26T14:11:13.019Z,100399.59
2024-04-26T14:13:44.172Z,100407.22
2024-04-26T14:16:20.382Z,100397.75
2024-04-26T14:18:53.055Z,100418.59
2024-04-26T14:21:21.967Z,100408.44
2024-04-26T14:23:53.148Z,100416.06
2024-04-26T14:26:27.128Z,100410.66
2024-04-26T14:29:03.118Z,100409.09
2024-04-26T14:31:34.699Z,100409.03
2024-04-26T14:34:05.600Z,100404.28
2024-04-26T14:36:37.100Z,100407.94
2024-04-26T14:39:08.043Z,100404.56
2024-04-26T14:41:47.536Z,100415.91
2024-04-26T14:44:19.278Z,100425.81
2024-04-26T14:46:50.536Z,100425.06
2024-04-26T14:49:21.441Z,100419.53
2024-04-26T14:51:52.778Z,100427.34
2024-04-26T14:54:23.635Z,100421.31
2024-04-26T14:56:57.578Z,100420.47
2024-04-26T14:59:28.400Z,100421.44
2024-04-26T15:01:59.823Z,100423.41
2024-04-26T15:04:30.787Z,100416.38
2024-04-26T15:07:02.034Z,100427.72
2024-04-26T15:09:32.970Z,100424.75
2024-04-26T15:12:07.379Z,100427.41
2024-04-26T15:14:38.232Z,100429.44
2024-04-26T15:17:10.040Z,100430.94
2024-04-26T15:19:43.877Z,100428.28
2024-04-26T15:22:15.242Z,100422.66
2024-04-26T15:24:46.675Z,100430.38
2024-04-26T15:27:20.527Z,100431.84
2024-04-26T15:29:54.179Z,100430.53
2024-04-26T15:32:25.860Z,100427.47
2024-04-26T15:34:56.737Z,100423.13
2024-04-26T15:37:28.048Z,100427.53
2024-04-26T15:39:58.983Z,100422.78
2024-04-26T15:42:32.892Z,100421.31
2024-04-26T15:45:03.922Z,100422.47
2024-04-26T15:47:35.503Z,100428.97
2024-04-26T15:50:06.552Z,100426.59
2024-04-26T15:52:38.091Z,100427.47
2024-04-26T15:55:10.000Z,100432.09
2024-04-26T15:57:47.265Z,100423.03
2024-04-26T16:00:19.844Z,100426.16
2024-04-26T16:02:51.239Z,100428.97
2024-04-26T16:05:22.209Z,100429.72
2024-04-26T16:07:53.697Z,100433.28
2024-04-26T16:10:24.802Z,100431.59
2024-04-26T16:12:59.969Z,100425.94
2024-04-26T16:15:30.930Z,100432.06
2024-04-26T16:18:02.305Z,100427.72
2024-04-26T16:20:33.746Z,100426.66
2024-04-26T16:23:05.172Z,100419.75
2024-04-26T16:25:36.043Z,100422.09
2024-04-26T16:28:10.266Z,100433.69
2024-04-26T16:30:41.245Z,100428.47
2024-04-26T16:33:12.581Z,100433.44
2024-04-26T16:35:44.484Z,100433.88
2024-04-26T16:38:15.977Z,100430.09
2024-04-26T16:40:47.044Z,100433.13
2024-04-26T16:43:21.002Z,100435.13
2024-04-26T16:45:51.838Z,100433.06
2024-04-26T16:48:23.140Z,100434.31
2024-04-26T16:50:54.377Z,100445.66
2024-04-26T16:53:25.654Z,100442.63
2024-04-26T16:55:56.785Z,100442.19
2024-04-26T16:58:32.133Z,100436.31
2024-04-26T17:01:06.955Z,100440.41
2024-04-26T17:03:38.318Z,100442.56
2024-04-26T17:06:09.974Z,100446.63
2024-04-26T17:08:41.285Z,100443.75
2024-04-26T17:11:12.525Z,100445.13
2024-04-26T17:13:46.609Z,100441.28
2024-04-26T17:16:17.687Z,100442.88
2024-04-26T17:18:49.023Z,100445.97
2024-04-26T17:21:19.936Z,100448.44
2024-04-26T17:23:51.202Z,100464.78
2024-04-26T17:26:22.210Z,100456.22
2024-04-26T17:28:56.278Z,100458.56
2024-04-26T17:31:27.280Z,100452.69
2024-04-26T17:33:58.631Z,100460.28
2024-04-26T17:36:29.597Z,100458.94
2024-04-26T17:39:01.009Z,100463.06
2024-04-26T17:41:32.176Z,100458.16
2024-04-26T17:44:06.302Z,100470.56
2024-04-26T17:46:37.302Z,100463.81
2024-04-26T17:49:08.622Z,100469.72
2024-04-26T17:51:46.173Z,100468.47
2024-04-26T17:54:17.780Z,100466.25
2024-04-26T17:56:48.666Z,100471.13
2024-04-26T17:59:22.605Z,100473.38
2024-04-26T18:01:53.668Z,100482.84
2024-04-26T18:04:25.069Z,100476.28
2024-04-26T18:06:55.946Z,100477.75
2024-04-26T18:09:27.212Z,100484.81
2024-04-26T18:11:58.320Z,100481.75
2024-04-26T18:14:33.522Z,100490.66
2024-04-26T18:17:05.561Z,100494.84
2024-04-26T18:19:36.999Z,100490.16
2024-04-26T18:22:07.875Z,100487.28
2024-04-26T18:24:42.271Z,100489.75
2024-04-26T18:27:13.392Z,100493.03
2024-04-26T18:29:47.361Z,100497.31
2024-04-26T18:32:18.264Z,100508.63
2024-04-26T18:34:49.688Z,100506.59
2024-04-26T18:37:17.859Z,100510.78
2024-04-26T18:39:49.154Z,100511.47
2024-04-26T18:42:21.568Z,100513.03
2024-04-26T18:44:56.098Z,100513.66
2024-04-26T18:47:27.681Z,100506.22
2024-04-26T18:49:58.989Z,100513.06
2024-04-26T18:52:29.984Z,100519.06
2024-04-26T18:55:02.460Z,100518.63
2024-04-26T18:57:33.402Z,100513.84
2024-04-26T19:00:08.744Z,100518.09
2024-04-26T19:02:39.707Z,100525.78
2024-04-26T19:05:11.283Z,100525.47
2024-04-26T19:07:42.450Z,100520.44
2024-04-26T19:10:13.913Z,100526.34
2024-04-26T19:12:46.968Z,100523.41
2024-04-26T19:15:21.088Z,100521.28
2024-04-26T19:17:52.078Z,100528.84
2024-04-26T19:20:24.798Z,100528.63
2024-04-26T19:22:55.849Z,100531.88
2024-04-26T19:25:27.731Z,100538.47
2024-04-26T19:27:59.920Z,100534.47
2024-04-26T19:30:34.846Z,100539.47
2024-04-26T19:33:10.407Z,100534.63
2024-04-26T19:35:43.816Z,100527.25
2024-04-26T19:38:18.605Z,100534.06
2024-04-26T19:40:50.148Z,100530.97
2024-04-26T19:43:21.694Z,100535.03
2024-04-26T19:45:58.326Z,100540.69
2024-04-26T19:48:29.373Z,100535.69
2024-04-26T19:51:05.357Z,100540.56
2024-04-26T19:53:52.132Z,100545.44
2024-04-26T19:56:38.161Z,100542.38
2024-04-26T19:59:20.334Z,100550.81
2024-04-26T20:01:58.022Z,100541.50
2024-04-26T20:04:40.344Z,100542.63
2024-04-26T20:07:11.869Z,100548.16
2024-04-26T20:09:58.438Z,100545.84
2024-04-26T20:12:33.718Z,100543.50
2024-04-26T20:15:11.048Z,100538.41
2024-04-26T20:17:45.690Z,100539.63
2024-04-26T20:20:16.819Z,100548.72
2024-04-26T20:22:48.181Z,100545.44
2024-04-26T20:25:19.226Z,100545.69
2024-04-26T20:27:50.533Z,100547.69
2024-04-26T20:30:21.444Z,100551.44
2024-04-26T20:32:55.516Z,100554.22
2024-04-26T20:35:27.268Z,100545.63
2024-04-26T20:37:59.043Z,100555.56
2024-04-26T20:40:30.681Z,100550.50
2024-04-26T20:43:02.242Z,100552.47
2024-04-26T20:45:33.452Z,100555.19
2024-04-26T20:48:08.083Z,100543.97
2024-04-26T20:50:39.520Z,100549.44
2024-04-26T20:53:10.890Z,100561.13
2024-04-26T20:55:41.856Z,100563.88
2024-04-26T20:58:13.923Z,100551.69
2024-04-26T21:00:44.994Z,100556.25
2024-04-26T21:03:18.919Z,100559.97
2024-04-26T21:05:49.712Z,100559.16
2024-04-26T21:08:20.991Z,100556.66
2024-04-26T21:10:52.020Z,100562.91
2024-04-26T21:13:24.456Z,100562.97
2024-04-26T21:15:55.561Z,100565.69
2024-04-26T21:18:29.580Z,100563.09
2024-04-26T21:21:00.507Z,100553.34
2024-04-26T21:23:34.094Z,100556.06
2024-04-26T21:26:04.925Z,100550.81
2024-04-26T21:28:36.245Z,100542.91
2024-04-26T21:31:07.364Z,100562.50
2024-04-26T21:33:42.166Z,100561.63
2024-04-26T21:36:13.196Z,100554.56
2024-04-26T21:38:44.998Z,100557.22
2024-04-26T21:41:16.014Z,100555.47
2024-04-26T21:43:47.277Z,100544.91
2024-04-26T21:46:23.974Z,100553.75
2024-04-26T21:48:57.887Z,100554.69
2024-04-26T21:51:29.381Z,100558.34
2024-04-26T21:54:02.653Z,100554.88
2024-04-26T21:56:34.123Z,100546.88
2024-04-26T21:59:14.233Z,100553.16
2024-04-26T22:01:48.658Z,100559.34
2024-04-26T22:04:22.705Z,100553.31
2024-04-26T22:06:53.791Z,100557.81
2024-04-26T22:09:26.010Z,100558.72
2024-04-26T22:11:59.802Z,100556.16
2024-04-26T22:14:31.238Z,100548.28
2024-04-26T22:17:03.000Z,100567.75
2024-04-26T22:19:36.992Z,100559.84
2024-04-26T22:22:08.007Z,100559.84
2024-04-26T22:24:39.222Z,100553.72
2024-04-26T22:27:11.113Z,100559.03
2024-04-26T22:29:44.022Z,100567.91
2024-04-26T22:32:15.910Z,100564.44
2024-04-26T22:34:49.878Z,100556.50
2024-04-26T22:37:20.799Z,100566.25
2024-04-26T22:39:52.295Z,100566.25
2024-04-26T22:42:24.532Z,100556.53
2024-04-26T22:44:56.054Z,100560.94
2024-04-26T22:47:26.969Z,100563.59
2024-04-26T22:50:01.033Z,100562.75
2024-04-26T22:52:31.982Z,100558.31
2024-04-26T22:55:04.270Z,100557.41
2024-04-26T22:57:35.164Z,100567.13
2024-04-26T23:00:06.807Z,100555.63
2024-04-26T23:02:38.024Z,100560.00
2024-04-26T23:05:12.447Z,100557.34
2024-04-26T23:07:43.248Z,100553.81
2024-04-26T23:10:14.525Z,100554.63
2024-04-26T23:12:45.322Z,100556.47
2024-04-26T23:15:17.275Z,100558.19
2024-04-26T23:17:48.713Z,100562.50
2024-04-26T23:20:22.744Z,100563.44
2024-04-26T23:22:53.588Z,100557.19
2024-04-26T23:25:24.965Z,100565.16
2024-04-26T23:27:55.862Z,100561.56
2024-04-26T23:30:27.157Z,100558.03
2024-04-26T23:32:58.003Z,100561.56
2024-04-26T23:35:32.042Z,100558.00
2024-04-26T23:38:02.930Z,100552.66
2024-04-26T23:40:34.546Z,100552.66
2024-04-26T23:43:05.517Z,100554.41
2024-04-26T23:45:36.738Z,100552.59
2024-04-26T23:48:08.315Z,100550.84
2024-04-26T23:50:42.309Z,100551.72
2024-04-26T23:53:13.330Z,100560.56
2024-04-26T23:55:44.886Z,100556.97
2024-04-26T23:58:15.792Z,100557.91
